Time;durP1;ratioP1;P1;durP2;ratioP2;P2;SDS_P1;SDS_P2;PMS_P1;PMS_P2;Temp;Humidity;BMP_temperature;BMP_pressure;BME280_temperature;BME280_humidity;BME280_pressure;Samples;Min_cycle;Max_cycle;Signal;HPM_P1;HPM_P2
2023/09/21 00:01:38;;;;;;;3.83;3.43;;;18.00;99.90;;;;;;4963651;28;20468;-79
2023/09/21 00:04:05;;;;;;;4.40;4.00;;;18.00;99.90;;;;;;4964704;28;20541;-79
2023/09/21 00:06:32;;;;;;;4.57;4.17;;;17.90;99.90;;;;;;4964200;28;20456;-79
2023/09/21 00:09:00;;;;;;;7.53;3.83;;;17.80;99.90;;;;;;4965953;28;20447;-79
2023/09/21 00:11:27;;;;;;;5.90;4.77;;;18.00;99.90;;;;;;4967109;28;20449;-78
2023/09/21 00:13:55;;;;;;;6.77;3.90;;;17.70;99.90;;;;;;4966652;28;20465;-78
2023/09/21 00:16:25;;;;;;;4.50;3.67;;;17.60;99.90;;;;;;4964009;28;20458;-79
2023/09/21 00:18:52;;;;;;;4.50;3.77;;;17.60;99.90;;;;;;4962895;28;20442;-79
2023/09/21 00:21:20;;;;;;;4.90;4.10;;;17.60;99.90;;;;;;4966998;28;20442;-79
2023/09/21 00:23:47;;;;;;;6.87;3.90;;;17.60;99.90;;;;;;4971170;28;20445;-81
2023/09/21 00:26:15;;;;;;;3.40;3.10;;;17.50;99.90;;;;;;4975244;28;20843;-79
2023/09/21 00:28:43;;;;;;;5.90;4.33;;;17.80;99.90;;;;;;4976570;28;20449;-79
2023/09/21 00:31:10;;;;;;;6.20;3.90;;;17.50;99.90;;;;;;4975613;28;20880;-79
2023/09/21 00:33:38;;;;;;;3.90;3.50;;;17.60;99.90;;;;;;4975653;28;20567;-79
2023/09/21 00:36:09;;;;;;;6.67;3.97;;;17.50;99.90;;;;;;4975103;28;20464;-78
2023/09/21 00:38:37;;;;;;;4.83;4.27;;;17.60;99.90;;;;;;4974038;28;20541;-78
2023/09/21 00:41:04;;;;;;;5.43;4.13;;;17.60;99.90;;;;;;4974848;28;20996;-81
2023/09/21 00:43:32;;;;;;;6.40;3.87;;;17.50;99.90;;;;;;4977219;28;20503;-79
2023/09/21 00:46:03;;;;;;;5.47;4.20;;;17.40;99.90;;;;;;4987670;28;20532;-79
2023/09/21 00:48:33;;;;;;;8.20;4.13;;;17.40;99.90;;;;;;4980399;28;20465;-79
2023/09/21 00:51:05;;;;;;;6.27;4.00;;;17.40;99.90;;;;;;4977754;28;20461;-79
2023/09/21 00:53:31;;;;;;;7.27;4.13;;;17.30;99.90;;;;;;4977895;28;20441;-80
2023/09/21 00:56:02;;;;;;;4.07;3.77;;;17.20;99.90;;;;;;4977717;28;20842;-79
2023/09/21 00:58:31;;;;;;;5.93;4.00;;;17.10;99.90;;;;;;4977896;28;20449;-78
2023/09/21 01:01:00;;;;;;;4.00;3.60;;;17.10;99.90;;;;;;4977952;28;20549;-79
2023/09/21 01:03:28;;;;;;;5.67;4.20;;;17.10;99.90;;;;;;4962674;28;20979;-79
2023/09/21 01:05:55;;;;;;;4.17;3.80;;;17.50;99.90;;;;;;4958195;29;20504;-77
2023/09/21 01:08:28;;;;;;;4.40;4.00;;;17.20;99.90;;;;;;4958238;29;20449;-79
2023/09/21 01:10:56;;;;;;;4.37;3.97;;;17.10;99.90;;;;;;4957129;29;20457;-78
2023/09/21 01:13:25;;;;;;;4.03;3.63;;;17.20;99.90;;;;;;4957122;28;20970;-79
2023/09/21 01:16:01;;;;;;;6.40;4.80;;;17.20;99.90;;;;;;4958347;29;20493;-80
2023/09/21 01:18:28;;;;;;;7.47;4.33;;;17.20;99.90;;;;;;4957897;29;20442;-79
2023/09/21 01:21:00;;;;;;;4.33;3.70;;;17.10;99.90;;;;;;4959125;28;20533;-78
2023/09/21 01:23:35;;;;;;;4.30;3.90;;;17.30;99.90;;;;;;4966504;29;20497;-79
2023/09/21 01:26:02;;;;;;;4.00;3.80;;;17.00;99.90;;;;;;4966489;29;20465;-78
2023/09/21 01:28:29;;;;;;;4.57;3.37;;;17.00;99.90;;;;;;4966300;28;20509;-78
2023/09/21 01:30:57;;;;;;;3.90;3.50;;;17.00;99.90;;;;;;4964408;29;20446;-78
2023/09/21 01:33:24;;;;;;;4.63;4.23;;;17.00;99.90;;;;;;4967040;28;20446;-77
2023/09/21 01:35:51;;;;;;;4.13;3.67;;;17.00;99.90;;;;;;4964251;28;20462;-78
2023/09/21 01:38:19;;;;;;;5.83;4.43;;;17.00;99.90;;;;;;4965269;28;20504;-78
2023/09/21 01:40:47;;;;;;;4.70;4.13;;;16.90;99.90;;;;;;4979501;28;20503;-80
2023/09/21 01:43:16;;;;;;;4.90;4.40;;;16.90;99.90;;;;;;4976798;28;20489;-78
2023/09/21 01:45:45;;;;;;;3.80;3.50;;;16.90;99.90;;;;;;4984277;28;20479;-81
2023/09/21 01:48:14;;;;;;;4.80;4.30;;;16.80;99.90;;;;;;4982829;28;20524;-79
2023/09/21 01:50:43;;;;;;;4.07;3.67;;;16.80;99.90;;;;;;4976553;28;20449;-81
2023/09/21 01:53:10;;;;;;;7.37;4.00;;;16.70;99.90;;;;;;4977520;28;20448;-77
2023/09/21 01:55:37;;;;;;;4.23;3.70;;;16.80;99.90;;;;;;4976617;28;20504;-79
2023/09/21 01:58:06;;;;;;;3.50;3.20;;;16.70;99.90;;;;;;4975755;28;20453;-79
2023/09/21 02:00:35;;;;;;;4.70;3.90;;;16.70;99.90;;;;;;4976416;28;20859;-80
2023/09/21 02:03:06;;;;;;;5.00;4.10;;;17.00;99.90;;;;;;4964893;28;21033;-81
2023/09/21 02:05:33;;;;;;;5.30;3.80;;;17.00;99.90;;;;;;4956202;29;20823;-80
2023/09/21 02:08:00;;;;;;;4.43;4.00;;;16.70;99.90;;;;;;4956546;29;20978;-78
2023/09/21 02:10:27;;;;;;;6.53;4.20;;;16.70;99.90;;;;;;4957578;29;20457;-78
2023/09/21 02:12:56;;;;;;;3.70;3.50;;;16.70;99.90;;;;;;4957122;29;20449;-80
2023/09/21 02:15:25;;;;;;;4.00;3.60;;;16.70;99.90;;;;;;4956253;29;20509;-80
2023/09/21 02:17:54;;;;;;;4.40;4.00;;;16.70;99.90;;;;;;4957731;29;20606;-79
2023/09/21 02:20:21;;;;;;;4.30;3.90;;;16.70;99.90;;;;;;4957046;29;20797;-80
2023/09/21 02:22:49;;;;;;;4.10;3.73;;;16.70;99.90;;;;;;4956906;29;20482;-80
2023/09/21 02:25:17;;;;;;;3.33;3.13;;;16.70;99.90;;;;;;4960191;28;20462;-79
2023/09/21 02:27:47;;;;;;;4.00;3.60;;;16.60;99.90;;;;;;4960778;28;20949;-79
2023/09/21 02:30:16;;;;;;;4.53;4.13;;;16.60;99.90;;;;;;4960038;29;20450;-77
2023/09/21 02:32:45;;;;;;;5.10;3.83;;;16.60;99.90;;;;;;4961485;29;20484;-78
2023/09/21 02:35:16;;;;;;;8.23;3.90;;;16.60;99.90;;;;;;4960583;29;20834;-81
2023/09/21 02:37:43;;;;;;;5.63;3.47;;;16.90;99.90;;;;;;4961690;29;20772;-79
2023/09/21 02:40:14;;;;;;;4.30;3.90;;;16.60;99.90;;;;;;4961397;29;20453;-81
2023/09/21 02:42:41;;;;;;;5.43;3.77;;;16.60;99.90;;;;;;4961931;28;20480;-78
2023/09/21 02:45:10;;;;;;;5.07;4.57;;;16.70;99.90;;;;;;4965367;29;20466;-79
2023/09/21 02:47:37;;;;;;;4.57;4.17;;;16.60;99.90;;;;;;4972133;29;20627;-78
2023/09/21 02:50:14;;;;;;;4.63;4.17;;;16.60;99.90;;;;;;4963626;29;20480;-77
2023/09/21 02:52:45;;;;;;;3.93;3.50;;;16.60;99.90;;;;;;4965892;29;20442;-78
2023/09/21 02:55:12;;;;;;;4.00;3.70;;;16.70;99.90;;;;;;4967958;29;20909;-80
2023/09/21 02:57:39;;;;;;;4.40;4.00;;;16.60;99.90;;;;;;4966799;29;20445;-78
2023/09/21 03:00:20;;;;;;;4.60;4.20;;;16.70;99.90;;;;;;4964716;28;20586;-80
2023/09/21 03:02:48;;;;;;;4.50;4.10;;;16.70;99.90;;;;;;4971064;28;20468;-78
2023/09/21 03:05:17;;;;;;;4.83;4.43;;;16.70;99.90;;;;;;4979709;28;20505;-79
2023/09/21 03:07:45;;;;;;;5.13;4.67;;;16.60;99.90;;;;;;4979477;28;20453;-79
2023/09/21 03:10:13;;;;;;;5.60;4.13;;;16.60;99.90;;;;;;4979676;28;20473;-78
2023/09/21 03:12:40;;;;;;;5.00;4.60;;;16.50;99.90;;;;;;4979585;28;20441;-79
2023/09/21 03:15:13;;;;;;;4.67;4.27;;;16.70;99.90;;;;;;4979446;28;20469;-79
2023/09/21 03:17:41;;;;;;;6.07;5.47;;;16.60;99.90;;;;;;4979716;28;20520;-79
2023/09/21 03:20:25;;;;;;;5.87;5.13;;;16.60;99.90;;;;;;4979724;28;20445;-80
2023/09/21 03:22:55;;;;;;;4.97;4.60;;;16.60;99.90;;;;;;4979445;28;20852;-79
2023/09/21 03:25:33;;;;;;;5.93;5.20;;;16.60;99.90;;;;;;4978865;28;20465;-77
2023/09/21 03:28:02;;;;;;;4.73;4.43;;;16.60;99.90;;;;;;4979249;28;20465;-79
2023/09/21 03:30:31;;;;;;;6.00;4.80;;;16.60;99.90;;;;;;4979415;28;20871;-79
2023/09/21 03:32:59;;;;;;;5.13;4.63;;;16.60;99.90;;;;;;4979110;28;20870;-78
2023/09/21 03:35:27;;;;;;;7.43;4.80;;;16.60;99.90;;;;;;4976871;28;20475;-77
2023/09/21 03:38:00;;;;;;;5.23;4.60;;;16.60;99.90;;;;;;4981490;28;20484;-78
2023/09/21 03:40:30;;;;;;;6.17;5.10;;;16.60;99.90;;;;;;4988550;28;20446;-77
2023/09/21 03:42:59;;;;;;;5.67;5.07;;;16.60;99.90;;;;;;4988902;28;20503;-77
2023/09/21 03:45:27;;;;;;;5.70;5.10;;;16.50;99.90;;;;;;4987024;28;20507;-77
2023/09/21 03:47:59;;;;;;;9.53;6.07;;;16.60;99.90;;;;;;4984036;28;20534;-77
2023/09/21 03:50:36;;;;;;;8.77;6.13;;;16.50;99.90;;;;;;4978408;28;20532;-79
2023/09/21 03:53:05;;;;;;;8.27;5.63;;;16.50;99.90;;;;;;4978158;28;21018;-77
2023/09/21 03:55:34;;;;;;;6.43;5.60;;;16.50;99.90;;;;;;4976483;28;20466;-78
2023/09/21 03:58:07;;;;;;;6.00;5.50;;;16.60;99.90;;;;;;4979236;28;20545;-77
2023/09/21 04:00:38;;;;;;;5.70;5.07;;;16.60;99.90;;;;;;4979422;28;20456;-79
2023/09/21 04:03:07;;;;;;;7.40;5.60;;;16.60;99.90;;;;;;4967438;28;21005;-78
2023/09/21 04:05:35;;;;;;;6.20;5.63;;;16.70;99.90;;;;;;4958337;28;20477;-78
2023/09/21 04:08:04;;;;;;;6.13;5.53;;;16.70;99.90;;;;;;4958484;29;20493;-78
2023/09/21 04:10:32;;;;;;;6.40;5.90;;;16.70;99.90;;;;;;4958172;28;20636;-77
2023/09/21 04:12:59;;;;;;;5.80;5.30;;;16.70;99.90;;;;;;4958214;29;20506;-77
2023/09/21 04:15:28;;;;;;;5.13;4.73;;;16.70;99.90;;;;;;4957296;28;20454;-78
2023/09/21 04:17:59;;;;;;;5.23;4.70;;;16.70;99.90;;;;;;4956803;29;20449;-79
2023/09/21 04:20:30;;;;;;;5.47;4.80;;;16.70;99.90;;;;;;4956875;29;20447;-78
2023/09/21 04:23:00;;;;;;;6.30;5.70;;;16.70;99.90;;;;;;4957105;28;20497;-78
2023/09/21 04:25:28;;;;;;;5.80;5.30;;;16.80;99.90;;;;;;4956556;28;20529;-78
2023/09/21 04:27:55;;;;;;;8.10;5.37;;;16.70;99.90;;;;;;4956847;28;20458;-79
2023/09/21 04:30:24;;;;;;;5.33;4.67;;;16.70;99.90;;;;;;4957578;28;20477;-77
2023/09/21 04:32:53;;;;;;;5.80;5.30;;;16.70;99.90;;;;;;4957527;28;20501;-78
2023/09/21 04:35:20;;;;;;;5.67;5.17;;;16.70;99.90;;;;;;4956348;29;20999;-77
2023/09/21 04:37:53;;;;;;;6.27;5.70;;;16.70;99.90;;;;;;4956910;28;20449;-77
2023/09/21 04:40:31;;;;;;;5.60;5.10;;;16.70;99.90;;;;;;4956684;28;20455;-77
2023/09/21 04:42:59;;;;;;;6.20;5.50;;;16.70;99.90;;;;;;4956917;28;20485;-78
2023/09/21 04:45:28;;;;;;;8.73;5.93;;;16.70;99.90;;;;;;4956122;28;20475;-76
2023/09/21 04:48:00;;;;;;;5.80;5.23;;;16.60;99.90;;;;;;4956011;28;20976;-76
2023/09/21 04:50:27;;;;;;;6.77;5.27;;;16.70;99.90;;;;;;4956766;28;20564;-77
2023/09/21 04:52:59;;;;;;;5.60;5.10;;;16.70;99.90;;;;;;4956754;28;20927;-78
2023/09/21 04:55:27;;;;;;;6.03;5.47;;;16.70;99.90;;;;;;4957068;29;21027;-78
2023/09/21 04:57:58;;;;;;;5.47;4.97;;;16.70;99.90;;;;;;4957335;29;20457;-79
2023/09/21 05:00:27;;;;;;;6.33;5.13;;;16.70;99.90;;;;;;4958441;29;20442;-77
2023/09/21 05:02:54;;;;;;;5.73;5.23;;;16.70;99.90;;;;;;4968449;28;20811;-77
2023/09/21 05:05:26;;;;;;;6.87;5.50;;;16.70;99.90;;;;;;4976514;28;20493;-78
2023/09/21 05:07:55;;;;;;;10.60;5.37;;;16.70;99.90;;;;;;4978481;28;20460;-79
2023/09/21 05:10:23;;;;;;;11.10;5.40;;;16.70;99.90;;;;;;4980294;28;20566;-79
2023/09/21 05:12:51;;;;;;;9.57;5.07;;;16.80;99.90;;;;;;4981280;28;20875;-79
2023/09/21 05:15:18;;;;;;;5.87;4.40;;;16.70;99.90;;;;;;4980893;28;20881;-80
2023/09/21 05:17:46;;;;;;;9.27;4.47;;;16.90;99.90;;;;;;4981307;28;20457;-79
2023/09/21 05:20:15;;;;;;;4.80;4.40;;;16.90;99.90;;;;;;4978823;28;20463;-81
2023/09/21 05:22:42;;;;;;;5.30;4.90;;;16.90;99.90;;;;;;4977345;28;20858;-79
2023/09/21 05:25:12;;;;;;;5.53;4.80;;;16.90;99.90;;;;;;4976981;28;20881;-79
2023/09/21 05:27:41;;;;;;;4.67;4.37;;;17.00;99.90;;;;;;4976152;28;20453;-80
2023/09/21 05:30:09;;;;;;;4.90;4.40;;;17.00;99.90;;;;;;4976284;28;20450;-78
2023/09/21 05:32:37;;;;;;;12.33;4.60;;;16.90;99.90;;;;;;4978303;28;21010;-79
2023/09/21 05:35:07;;;;;;;4.77;4.40;;;16.90;99.90;;;;;;4977453;28;20576;-78
2023/09/21 05:37:35;;;;;;;4.90;4.40;;;16.90;99.90;;;;;;4982726;28;20441;-79
2023/09/21 05:40:05;;;;;;;4.50;4.20;;;16.90;99.90;;;;;;4981349;28;20460;-81
2023/09/21 05:42:32;;;;;;;5.07;4.67;;;16.80;99.90;;;;;;4982460;28;20919;-78
2023/09/21 05:44:59;;;;;;;6.33;4.30;;;16.80;99.90;;;;;;4982229;28;20850;-80
2023/09/21 05:47:30;;;;;;;5.33;4.60;;;16.80;99.90;;;;;;4979197;28;20582;-79
2023/09/21 05:49:57;;;;;;;6.70;4.37;;;16.80;99.90;;;;;;4977791;28;20445;-81
2023/09/21 05:52:30;;;;;;;5.10;4.57;;;17.00;99.90;;;;;;4976405;28;20515;-80
2023/09/21 05:54:57;;;;;;;5.80;4.80;;;16.90;99.90;;;;;;4975891;28;20564;-79
2023/09/21 05:57:24;;;;;;;5.93;4.27;;;16.90;99.90;;;;;;4976016;28;20433;-79
2023/09/21 05:59:52;;;;;;;4.67;4.27;;;17.00;99.90;;;;;;4976073;28;20449;-78
2023/09/21 06:02:22;;;;;;;4.80;4.40;;;17.00;99.90;;;;;;4970038;28;20493;-78
2023/09/21 06:04:49;;;;;;;4.67;4.30;;;16.90;99.90;;;;;;4956041;28;20554;-79
2023/09/21 06:07:20;;;;;;;4.83;4.43;;;16.90;99.90;;;;;;4959401;28;20458;-79
2023/09/21 06:09:51;;;;;;;4.80;4.40;;;17.00;99.90;;;;;;4958101;28;20458;-77
2023/09/21 06:12:18;;;;;;;4.60;4.00;;;17.10;99.90;;;;;;4955362;28;20453;-78
2023/09/21 06:14:45;;;;;;;4.17;3.80;;;17.10;99.90;;;;;;4956113;28;21010;-80
2023/09/21 06:17:13;;;;;;;4.60;4.10;;;17.10;99.90;;;;;;4957534;29;20497;-78
2023/09/21 06:19:41;;;;;;;4.53;4.23;;;17.10;99.90;;;;;;4956436;28;20457;-79
2023/09/21 06:22:08;;;;;;;5.07;4.27;;;17.10;99.90;;;;;;4956748;29;20450;-78
2023/09/21 06:24:35;;;;;;;4.60;4.30;;;17.20;99.90;;;;;;4955112;28;20553;-78
2023/09/21 06:27:03;;;;;;;4.10;3.80;;;17.30;99.90;;;;;;4956187;29;20450;-79
2023/09/21 06:29:30;;;;;;;4.17;3.77;;;17.30;99.90;;;;;;4956449;28;20457;-78
2023/09/21 06:32:00;;;;;;;5.00;4.50;;;17.40;99.90;;;;;;4956587;28;20457;-78
2023/09/21 06:34:27;;;;;;;4.77;4.27;;;17.40;99.90;;;;;;4955736;28;20534;-78
2023/09/21 06:36:57;;;;;;;5.70;4.00;;;17.50;99.90;;;;;;4955907;29;20474;-79
2023/09/21 06:39:25;;;;;;;3.73;3.43;;;17.50;99.90;;;;;;4957626;29;20477;-79
2023/09/21 06:41:52;;;;;;;4.70;4.17;;;17.50;99.90;;;;;;4955386;28;20533;-80
2023/09/21 06:44:23;;;;;;;6.00;4.03;;;17.50;99.90;;;;;;4954697;28;20490;-78
2023/09/21 06:46:53;;;;;;;7.93;4.63;;;17.60;99.90;;;;;;4955027;28;20508;-80
2023/09/21 06:49:21;;;;;;;4.73;4.30;;;17.60;99.90;;;;;;4955765;29;20786;-79
2023/09/21 06:51:49;;;;;;;5.63;4.30;;;17.50;99.90;;;;;;4955268;28;20454;-78
2023/09/21 06:54:16;;;;;;;5.30;4.87;;;17.50;99.90;;;;;;4955126;29;20474;-78
2023/09/21 06:56:45;;;;;;;8.20;4.93;;;17.50;99.90;;;;;;4955709;28;20485;-79
2023/09/21 06:59:12;;;;;;;4.67;4.27;;;17.60;99.90;;;;;;4974196;28;20540;-79
2023/09/21 07:01:44;;;;;;;5.50;4.00;;;17.70;99.90;;;;;;4984746;28;20862;-78
2023/09/21 07:04:11;;;;;;;8.67;4.20;;;17.70;99.90;;;;;;4973785;28;20469;-79
2023/09/21 07:06:39;;;;;;;4.83;4.20;;;17.90;99.90;;;;;;4974970;28;20430;-79
2023/09/21 07:09:09;;;;;;;4.53;4.13;;;18.00;99.90;;;;;;4973671;28;20453;-79
2023/09/21 07:11:36;;;;;;;4.50;4.10;;;18.00;99.90;;;;;;4976976;28;20480;-80
2023/09/21 07:14:05;;;;;;;4.63;4.23;;;18.10;99.90;;;;;;4977869;28;20974;-79
2023/09/21 07:16:33;;;;;;;4.67;4.27;;;18.20;99.90;;;;;;4978577;28;20931;-79
2023/09/21 07:19:02;;;;;;;5.17;4.40;;;18.30;99.90;;;;;;4978452;28;20437;-79
2023/09/21 07:21:29;;;;;;;5.80;4.60;;;18.40;99.90;;;;;;4982270;28;20451;-80
2023/09/21 07:23:56;;;;;;;6.77;3.93;;;18.40;99.90;;;;;;4998033;28;20475;-79
2023/09/21 07:26:25;;;;;;;6.03;4.63;;;18.40;99.90;;;;;;5000267;28;20529;-81
2023/09/21 07:28:55;;;;;;;6.10;4.50;;;18.50;99.90;;;;;;5002214;28;20523;-80
2023/09/21 07:31:22;;;;;;;4.20;3.90;;;18.60;99.90;;;;;;4996849;28;20892;-80
2023/09/21 07:33:52;;;;;;;8.47;4.40;;;18.70;99.90;;;;;;4980454;28;20896;-79
2023/09/21 07:36:20;;;;;;;5.60;4.13;;;18.80;99.90;;;;;;4983592;28;20457;-81
2023/09/21 07:38:47;;;;;;;7.57;4.57;;;18.60;99.90;;;;;;4985023;28;20938;-81
2023/09/21 07:41:14;;;;;;;4.27;3.87;;;19.00;99.90;;;;;;4981147;28;20474;-81
2023/09/21 07:43:41;;;;;;;6.73;4.00;;;19.10;99.90;;;;;;4980261;28;20539;-79
2023/09/21 07:46:08;;;;;;;4.40;4.00;;;19.20;99.90;;;;;;4980265;28;20850;-80
2023/09/21 07:48:35;;;;;;;6.43;4.70;;;19.30;99.90;;;;;;4978880;28;20485;-79
2023/09/21 07:51:06;;;;;;;6.60;4.20;;;19.40;99.90;;;;;;4977226;28;20951;-80
2023/09/21 07:53:35;;;;;;;7.30;4.20;;;19.40;99.90;;;;;;4977453;28;20524;-81
2023/09/21 07:56:05;;;;;;;4.60;4.20;;;19.40;99.90;;;;;;4978488;28;20562;-79
2023/09/21 07:58:35;;;;;;;6.47;3.60;;;19.50;99.90;;;;;;4997754;28;20480;-79
2023/09/21 08:01:07;;;;;;;4.23;3.90;;;19.60;99.90;;;;;;4998054;28;20452;-79
2023/09/21 08:03:34;;;;;;;4.33;3.90;;;19.90;99.90;;;;;;4983341;28;20508;-80
2023/09/21 08:06:01;;;;;;;6.50;4.60;;;19.80;99.90;;;;;;4979176;28;20489;-81
2023/09/21 08:08:28;;;;;;;11.07;4.63;;;19.80;99.90;;;;;;4980790;28;20430;-80
2023/09/21 08:10:57;;;;;;;7.30;4.80;;;20.10;99.90;;;;;;4986078;28;20445;-79
2023/09/21 08:13:26;;;;;;;5.40;4.50;;;20.20;99.90;;;;;;4993273;28;20453;-79
2023/09/21 08:15:55;;;;;;;9.27;4.80;;;20.60;99.90;;;;;;4992884;28;20468;-80
2023/09/21 08:18:24;;;;;;;6.40;4.80;;;20.50;99.90;;;;;;4978683;28;20880;-81
2023/09/21 08:20:52;;;;;;;6.20;5.20;;;21.20;99.90;;;;;;4976789;28;20529;-80
2023/09/21 08:23:19;;;;;;;7.10;5.10;;;21.50;99.90;;;;;;4976900;28;20452;-80
2023/09/21 08:25:50;;;;;;;6.77;4.50;;;21.60;99.90;;;;;;4977066;28;20481;-80
2023/09/21 08:28:20;;;;;;;7.43;4.50;;;21.40;99.90;;;;;;4981531;28;20488;-79
2023/09/21 08:30:48;;;;;;;6.77;4.53;;;21.40;99.90;;;;;;4985678;28;20516;-80
2023/09/21 08:33:17;;;;;;;6.57;4.73;;;21.50;99.90;;;;;;4985227;28;20449;-80
2023/09/21 08:35:44;;;;;;;6.97;4.60;;;21.60;99.90;;;;;;4988127;28;20473;-81
2023/09/21 08:38:11;;;;;;;4.73;4.17;;;21.70;99.90;;;;;;4988043;28;20445;-80
2023/09/21 08:40:49;;;;;;;6.30;4.40;;;21.90;99.90;;;;;;4985705;28;20453;-81
2023/09/21 08:43:30;;;;;;;4.90;4.50;;;22.10;99.90;;;;;;4977048;28;20434;-79
2023/09/21 08:46:11;;;;;;;6.00;4.20;;;22.10;99.90;;;;;;4975455;28;20473;-81
2023/09/21 08:48:43;;;;;;;8.53;4.40;;;22.10;99.90;;;;;;4981894;28;20464;-79
2023/09/21 08:51:20;;;;;;;7.03;4.30;;;22.30;99.90;;;;;;4975800;28;20946;-80
2023/09/21 08:53:54;;;;;;;6.33;4.33;;;22.60;99.90;;;;;;4975249;28;20537;-79
2023/09/21 08:59:09;;;;;;;6.67;4.37;;;23.30;99.90;;;;;;4985493;28;20441;-80
2023/09/21 09:01:40;;;;;;;8.10;4.33;;;23.40;99.90;;;;;;4984100;28;20433;-80
2023/09/21 09:04:13;;;;;;;8.23;4.90;;;23.80;99.90;;;;;;4986948;28;20492;-79
2023/09/21 09:06:52;;;;;;;5.00;3.73;;;23.80;99.90;;;;;;4985450;28;20452;-80
2023/09/21 09:09:26;;;;;;;3.93;3.57;;;24.40;99.90;;;;;;4979025;28;20516;-80
2023/09/21 09:12:01;;;;;;;4.70;3.87;;;24.40;99.90;;;;;;4988046;28;20436;-79
2023/09/21 09:15:02;;;;;;;4.43;3.80;;;24.50;99.90;;;;;;4987225;28;20453;-81
2023/09/21 09:18:12;;;;;;;4.63;3.50;;;24.70;99.90;;;;;;4983490;28;20437;-81
2023/09/21 09:20:48;;;;;;;9.57;3.60;;;24.90;99.90;;;;;;4968984;28;20500;-81
2023/09/21 09:23:32;;;;;;;;;;;;;;;;;;;;;
2023/09/21 09:26:19;;;;;;;4.83;3.40;;;25.10;99.90;;;;;;4981796;28;20917;-82
2023/09/21 09:31:44;;;;;;;5.10;3.13;;;25.40;99.90;;;;;;4972631;28;20445;-80
2023/09/21 09:34:31;;;;;;;4.00;3.60;;;25.30;99.90;;;;;;4979764;28;20455;-82
2023/09/21 09:40:18;;;;;;;2.80;2.60;;;25.60;99.90;;;;;;4981917;28;20466;-81
2023/09/21 09:42:58;;;;;;;3.57;3.00;;;25.70;99.90;;;;;;4967748;28;20442;-79
2023/09/21 09:45:31;;;;;;;4.60;3.80;;;25.90;99.90;;;;;;4961470;29;20482;-81
2023/09/21 09:48:19;;;;;;;4.93;3.70;;;26.10;99.90;;;;;;4970512;28;20599;-82
2023/09/21 09:50:55;;;;;;;3.73;3.13;;;26.00;99.90;;;;;;4977722;28;20445;-81
2023/09/21 09:53:41;;;;;;;4.93;3.20;;;26.20;99.90;;;;;;4970207;28;20445;-80
2023/09/21 09:56:22;;;;;;;3.60;3.30;;;26.00;99.90;;;;;;4972350;28;20454;-81
2023/09/21 09:58:51;;;;;;;3.60;3.30;;;26.10;99.90;;;;;;4974144;28;20942;-81
2023/09/21 10:01:41;;;;;;;5.20;3.23;;;26.10;99.90;;;;;;4972992;28;20458;-81
2023/09/21 10:04:21;;;;;;;6.03;4.00;;;26.40;99.90;;;;;;4967998;28;20938;-80
2023/09/21 10:07:09;;;;;;;;;;;;;;;;;;;;;
2023/09/21 10:09:51;;;;;;;5.77;3.00;;;26.70;99.90;;;;;;4965590;28;21107;-82
2023/09/21 10:12:34;;;;;;;;;;;;;;;;;;;;;
2023/09/21 10:15:22;;;;;;;7.17;3.20;;;27.20;99.90;;;;;;4962079;28;20537;-81
2023/09/21 10:17:55;;;;;;;6.10;5.60;;;27.10;99.90;;;;;;4956666;28;20450;-81
2023/09/21 10:20:46;;;;;;;;;;;;;;;;;;;;;
2023/09/21 10:23:19;;;;;;;9.17;8.33;;;26.70;99.90;;;;;;4957249;29;20928;-81
2023/09/21 10:25:56;;;;;;;4.10;3.80;;;26.70;99.90;;;;;;4957080;28;20489;-82
2023/09/21 10:28:57;;;;;;;3.30;2.77;;;26.70;99.90;;;;;;4957153;28;20505;-84
2023/09/21 10:31:35;;;;;;;3.23;2.90;;;26.70;99.90;;;;;;4967163;28;20418;-80
2023/09/21 10:34:23;;;;;;;3.43;2.87;;;26.50;99.90;;;;;;4963099;28;20452;-83
2023/09/21 10:37:05;;;;;;;8.20;3.07;;;26.90;99.90;;;;;;4969409;28;20453;-81
2023/09/21 10:39:41;;;;;;;3.40;2.90;;;27.00;99.90;;;;;;4957205;29;20453;-79
2023/09/21 10:45:26;;;;;;;2.63;2.40;;;27.10;99.90;;;;;;4922815;28;20490;-82
2023/09/21 10:47:59;;;;;;;4.30;2.40;;;27.70;99.90;;;;;;4960759;29;20817;-82
2023/09/21 10:50:35;;;;;;;4.13;2.20;;;27.90;99.90;;;;;;4960721;29;20464;-81
2023/09/21 10:53:06;;;;;;;3.80;2.43;;;27.90;99.90;;;;;;4959705;28;20897;-81
2023/09/21 10:55:42;;;;;;;2.57;2.37;;;27.40;99.90;;;;;;4961475;28;20505;-83
2023/09/21 10:58:24;;;;;;;2.40;2.20;;;27.40;99.90;;;;;;4961386;28;20464;-81
2023/09/21 11:01:06;;;;;;;2.27;2.07;;;27.50;99.90;;;;;;4961770;29;20826;-81
2023/09/21 11:03:43;;;;;;;6.67;2.13;;;27.00;99.90;;;;;;4961468;28;20460;-82
2023/09/21 11:06:16;;;;;;;2.70;2.50;;;26.50;99.90;;;;;;4968764;28;20512;-81
2023/09/21 11:08:57;;;;;;;;;;;;;;;;;;;;;
2023/09/21 11:11:25;;;;;;;2.10;2.00;;;27.20;99.90;;;;;;4971225;28;20799;-84
2023/09/21 11:13:59;;;;;;;2.17;2.07;;;27.40;99.90;;;;;;4967752;28;20500;-83
2023/09/21 11:16:27;;;;;;;3.50;1.77;;;27.60;99.90;;;;;;4967883;28;20430;-81
2023/09/21 11:19:06;;;;;;;2.13;2.00;;;27.90;99.90;;;;;;4970033;28;20488;-81
2023/09/21 11:21:38;;;;;;;1.93;1.83;;;28.30;99.90;;;;;;4964419;28;20438;-82
2023/09/21 11:24:12;;;;;;;2.57;2.10;;;28.40;99.90;;;;;;4961983;28;20460;-81
2023/09/21 11:26:56;;;;;;;1.80;1.70;;;28.40;99.90;;;;;;4958799;28;20597;-83
2023/09/21 11:29:27;;;;;;;2.50;2.30;;;28.40;99.90;;;;;;4962952;28;20957;-81
2023/09/21 11:32:17;;;;;;;;;;;;;;;;;;;;;
2023/09/21 11:35:00;;;;;;;4.17;2.77;;;27.70;99.90;;;;;;4969947;28;20465;-82
2023/09/21 11:40:55;;;;;;;2.10;2.00;;;27.50;99.90;;;;;;4955674;28;20492;-84
2023/09/21 11:46:51;;;;;;;;;;;;;;;;;;;;;
2023/09/21 11:49:31;;;;;;;3.00;1.90;;;28.00;99.90;;;;;;4889333;28;20460;-82
2023/09/21 11:55:18;;;;;;;2.47;2.07;;;28.30;99.90;;;;;;4981774;28;20520;-83
2023/09/21 11:58:00;;;;;;;;;;;;;;;;;;;;;
2023/09/21 12:00:43;;;;;;;3.40;2.27;;;28.50;99.90;;;;;;4980609;28;20453;-82
2023/09/21 12:09:29;;;;;;;2.10;2.00;;;28.30;99.90;;;;;;4958925;28;20446;-82
2023/09/21 12:12:09;;;;;;;2.43;2.20;;;28.50;99.90;;;;;;4971393;28;20454;-84
2023/09/21 12:32:38;;;;;;;2.03;1.93;;;29.20;99.90;;;;;;4890846;29;20487;-79
2023/09/21 12:38:32;;;;;;;2.23;2.10;;;29.80;99.90;;;;;;5005999;28;20458;-81
2023/09/21 12:41:09;;;;;;;2.13;1.93;;;30.70;99.90;;;;;;5021450;28;20638;-79
2023/09/21 12:43:45;;;;;;;3.80;1.90;;;30.80;99.90;;;;;;5020664;28;20932;-80
2023/09/21 12:46:13;;;;;;;2.70;2.00;;;30.80;99.90;;;;;;5020259;28;20482;-81
2023/09/21 12:49:07;;;;;;;2.20;2.10;;;30.90;99.90;;;;;;5021742;28;20428;-80
2023/09/21 12:51:47;;;;;;;2.40;1.90;;;31.00;99.90;;;;;;5019932;28;20456;-81
2023/09/21 12:54:17;;;;;;;4.40;1.90;;;30.90;99.40;;;;;;5018311;28;20499;-80
2023/09/21 12:56:45;;;;;;;1.90;1.80;;;30.80;99.60;;;;;;5018349;28;20503;-80
2023/09/21 12:59:15;;;;;;;1.90;1.80;;;30.80;99.30;;;;;;5018791;28;20458;-82
2023/09/21 13:01:51;;;;;;;3.43;2.10;;;30.90;99.20;;;;;;5020926;28;20451;-81
2023/09/21 13:04:28;;;;;;;2.00;1.80;;;31.10;98.80;;;;;;5018467;28;20463;-82
2023/09/21 13:07:39;;;;;;;;;;;;;;;;;;;;;
2023/09/21 13:10:09;;;;;;;1.93;1.83;;;;;;;;;;5017061;28;20538;-82
2023/09/21 13:12:39;;;;;;;2.87;1.90;;;31.10;98.00;;;;;;5018896;28;20476;-80
2023/09/21 13:15:08;;;;;;;2.23;2.13;;;31.60;96.30;;;;;;5019181;28;20559;-79
2023/09/21 13:17:36;;;;;;;2.87;1.93;;;31.60;96.60;;;;;;5017832;28;20448;-80
2023/09/21 13:20:07;;;;;;;2.37;2.23;;;31.80;95.80;;;;;;5018513;28;20451;-80
2023/09/21 13:22:36;;;;;;;2.13;1.93;;;31.20;95.90;;;;;;5020546;28;20451;-80
2023/09/21 13:25:03;;;;;;;2.63;2.07;;;30.70;96.30;;;;;;5032116;28;20486;-80
2023/09/21 13:27:37;;;;;;;2.47;2.27;;;30.80;96.40;;;;;;5045757;28;20489;-79
2023/09/21 13:30:09;;;;;;;2.27;2.17;;;30.50;96.60;;;;;;5046914;28;20446;-83
2023/09/21 13:32:37;;;;;;;2.13;2.03;;;30.80;96.70;;;;;;5045820;28;20450;-81
2023/09/21 13:35:08;;;;;;;2.47;2.27;;;30.80;96.30;;;;;;5043268;28;20469;-80
2023/09/21 13:37:35;;;;;;;1.83;1.73;;;30.70;96.20;;;;;;5040944;28;20470;-82
2023/09/21 13:40:07;;;;;;;3.43;2.00;;;30.80;96.80;;;;;;5037932;28;20455;-78
2023/09/21 13:42:40;;;;;;;6.77;2.10;;;30.70;96.90;;;;;;5035131;28;20487;-81
2023/09/21 13:45:20;;;;;;;2.07;1.97;;;30.70;96.40;;;;;;5034560;28;20951;-82
2023/09/21 13:47:58;;;;;;;2.17;1.70;;;30.60;96.80;;;;;;5034451;28;20497;-82
2023/09/21 13:50:27;;;;;;;2.40;1.90;;;30.90;96.20;;;;;;5034345;28;20435;-82
2023/09/21 13:53:04;;;;;;;2.50;1.90;;;31.40;95.70;;;;;;5034906;28;20442;-81
2023/09/21 13:55:38;;;;;;;2.03;1.90;;;31.50;95.20;;;;;;5034510;28;20469;-80
2023/09/21 13:58:08;;;;;;;2.10;1.90;;;31.70;94.80;;;;;;5033738;28;20441;-79
2023/09/21 14:01:16;;;;;;;;;;;;;;;;;;;;;
2023/09/21 14:04:00;;;;;;;2.30;2.20;;;31.40;94.80;;;;;;5019690;28;21006;-82
2023/09/21 14:06:36;;;;;;;4.10;1.87;;;31.60;94.40;;;;;;5033749;28;20470;-82
2023/09/21 14:09:09;;;;;;;2.30;1.90;;;31.70;94.00;;;;;;5035301;28;20446;-81
2023/09/21 14:11:37;;;;;;;1.70;1.60;;;31.30;93.50;;;;;;5034940;28;20447;-81